Terminal Aerodrome Forecast
Issued by NWS Denver/Boulder, CO

Home | Current Version | Previous Version | Text Only | Print | Product List | Glossary On
Versions: 1 2 3 4 5 6 7 8 9 10 11 12 13 14 15 16 17 18 19 20 21 22 23 24 25 26 27 28 29 30
000
FTUS45 KBOU 172108 AAB
TAFDEN
TAF AMD
KDEN 172108Z 1721/1824 34009KT P6SM SCT100 BKN220
     FM180000 33010KT P6SM SCT070 BKN100
     FM180100 03012G20KT P6SM VCSH SCT030 BKN070
     FM180900 03012KT 5SM BR VCSH OVC010
     FM181600 05008KT P6SM OVC015
     FM182000 10007KT P6SM BKN025=

USA.gov is the U.S. government's official web portal to all federal, state and local government web resources and services.